createdAt,value
2023-01-05T00:02:46.626Z,8.33
2023-01-05T00:07:48.275Z,8.11
2023-01-05T00:13:08.458Z,8.02
2023-01-05T00:18:32.297Z,7.99
2023-01-05T00:23:33.905Z,8.08
2023-01-05T00:28:35.636Z,8.22
2023-01-05T00:33:37.266Z,8.36
2023-01-05T00:38:41.695Z,8.53
2023-01-05T00:43:43.279Z,8.62
2023-01-05T00:48:44.945Z,8.67
2023-01-05T00:53:48.257Z,8.72
2023-01-05T00:58:54.283Z,8.77
2023-01-05T01:03:56.558Z,8.86
2023-01-05T01:08:59.195Z,9.01
2023-01-05T01:14:00.834Z,9.10
2023-01-05T01:19:05.271Z,9.21
2023-01-05T01:24:07.805Z,9.27
2023-01-05T01:29:09.754Z,9.34
2023-01-05T01:34:11.516Z,9.51
2023-01-05T01:39:14.509Z,9.62
2023-01-05T01:44:49.704Z,9.63
2023-01-05T01:49:55.442Z,9.73
2023-01-05T01:54:57.749Z,9.78
2023-01-05T02:00:02.620Z,9.82
2023-01-05T02:05:08.742Z,9.92
2023-01-05T02:10:10.977Z,9.93
2023-01-05T02:15:22.395Z,9.98
2023-01-05T02:20:44.432Z,9.97
2023-01-05T02:26:01.181Z,9.99
2023-01-05T02:31:07.267Z,9.97
2023-01-05T02:36:26.510Z,9.95
2023-01-05T02:41:45.315Z,9.95
2023-01-05T02:47:30.543Z,9.91
2023-01-05T02:52:49.185Z,9.76
2023-01-05T02:57:58.835Z,9.74
2023-01-05T03:03:09.802Z,9.72
2023-01-05T03:08:25.061Z,9.75
2023-01-05T03:13:42.944Z,9.83
2023-01-05T03:19:11.452Z,9.88
2023-01-05T03:24:31.690Z,10.13
2023-01-05T03:29:52.005Z,10.16
2023-01-05T03:35:28.908Z,10.18
2023-01-05T03:40:33.668Z,10.18
2023-01-05T03:45:43.381Z,10.22
2023-01-05T03:50:50.741Z,10.27
2023-01-05T03:55:54.271Z,10.22
2023-01-05T04:00:57.909Z,10.21
2023-01-05T04:06:00.853Z,10.18
2023-01-05T04:11:13.031Z,10.16
2023-01-05T04:16:15.016Z,10.12
2023-01-05T04:21:17.783Z,10.05
2023-01-05T04:26:20.100Z,9.99
2023-01-05T04:31:24.563Z,9.94
2023-01-05T04:36:28.779Z,9.88
2023-01-05T04:41:32.563Z,9.79
2023-01-05T04:46:34.489Z,9.71
2023-01-05T04:51:37.486Z,9.65
2023-01-05T04:56:40.841Z,9.57
2023-01-05T05:01:43.656Z,9.55
2023-01-05T05:06:47.813Z,9.48
2023-01-05T05:11:50.378Z,9.48
2023-01-05T05:16:56.263Z,9.45
2023-01-05T05:21:57.984Z,9.39
2023-01-05T05:27:01.367Z,9.37
2023-01-05T05:32:04.053Z,9.34
2023-01-05T05:37:05.811Z,9.33
2023-01-05T05:42:07.396Z,9.34
2023-01-05T05:47:09.040Z,9.35
2023-01-05T05:52:10.667Z,9.30
2023-01-05T05:57:12.361Z,9.24
2023-01-05T06:02:14.123Z,9.22
2023-01-05T06:07:15.859Z,9.15
2023-01-05T06:12:17.451Z,9.05
2023-01-05T06:17:19.137Z,9.00
2023-01-05T06:22:20.815Z,8.90
2023-01-05T06:27:22.433Z,8.78
2023-01-05T06:32:24.111Z,8.65
2023-01-05T06:37:25.704Z,8.56
2023-01-05T06:42:27.402Z,8.57
2023-01-05T06:47:28.957Z,8.62
2023-01-05T06:52:30.646Z,8.67
2023-01-05T06:57:32.234Z,8.71
2023-01-05T07:02:33.852Z,8.70
2023-01-05T07:07:36.060Z,8.73
2023-01-05T07:12:37.804Z,8.74
2023-01-05T07:17:39.410Z,8.73
2023-01-05T07:22:41.013Z,8.70
2023-01-05T07:27:42.587Z,8.63
2023-01-05T07:32:44.208Z,8.55
2023-01-05T07:37:45.799Z,8.59
2023-01-05T07:42:52.094Z,8.63
2023-01-05T07:47:53.684Z,8.65
2023-01-05T07:52:55.266Z,8.65
2023-01-05T07:57:56.803Z,8.66
2023-01-05T08:02:58.383Z,8.67
2023-01-05T08:07:59.936Z,8.68
2023-01-05T08:13:25.227Z,8.72
2023-01-05T08:18:27.496Z,8.71
2023-01-05T08:23:29.090Z,8.73
2023-01-05T08:28:35.236Z,8.79
2023-01-05T08:33:37.646Z,8.84
2023-01-05T08:38:43.312Z,8.94
2023-01-05T08:43:49.798Z,8.89
2023-01-05T08:48:55.264Z,8.82
2023-01-05T08:53:57.396Z,8.84
2023-01-05T08:59:01.579Z,8.85
2023-01-05T09:04:03.200Z,8.86
2023-01-05T09:09:05.145Z,8.96
2023-01-05T09:14:06.838Z,8.93
2023-01-05T09:19:10.045Z,9.01
2023-01-05T09:24:12.992Z,9.00
2023-01-05T09:29:14.714Z,8.97
2023-01-05T09:34:19.002Z,8.99
2023-01-05T09:39:20.643Z,9.08
2023-01-05T09:44:40.405Z,9.22
2023-01-05T09:49:42.217Z,9.33
2023-01-05T09:54:43.851Z,9.17
2023-01-05T09:59:50.522Z,9.14
2023-01-05T10:04:54.309Z,9.27
2023-01-05T10:10:00.459Z,9.22
2023-01-05T10:15:11.339Z,9.38
2023-01-05T10:20:42.916Z,9.29
2023-01-05T10:25:57.009Z,9.00
2023-01-05T10:31:01.553Z,9.12
2023-01-05T10:36:12.991Z,9.42
2023-01-05T10:41:37.127Z,9.35
2023-01-05T10:46:48.703Z,9.62
2023-01-05T10:51:57.396Z,9.72
2023-01-05T10:57:35.364Z,9.69
2023-01-05T11:02:50.245Z,9.45
2023-01-05T11:07:55.744Z,9.47
2023-01-05T11:13:18.349Z,9.51
2023-01-05T11:18:29.407Z,9.55
2023-01-05T11:23:55.336Z,9.66
2023-01-05T11:29:05.233Z,9.56
2023-01-05T11:34:15.394Z,9.29
2023-01-05T11:39:25.908Z,9.14
2023-01-05T11:44:27.923Z,9.18
2023-01-05T11:49:29.590Z,9.14
2023-01-05T11:54:36.715Z,9.10
2023-01-05T11:59:38.317Z,9.29
2023-01-05T12:04:48.881Z,9.42
2023-01-05T12:10:08.902Z,9.31
2023-01-05T12:15:34.873Z,8.85
2023-01-05T12:21:02.835Z,8.97
2023-01-05T12:26:19.049Z,9.22
2023-01-05T12:37:10.818Z,9.58
2023-01-05T12:42:23.451Z,9.55
2023-01-05T12:48:06.085Z,9.53
2023-01-05T12:53:17.622Z,9.51
2023-01-05T12:58:49.141Z,9.50
2023-01-05T13:04:12.349Z,9.36
2023-01-05T13:09:20.330Z,9.30
2023-01-05T13:14:27.397Z,9.10
2023-01-05T13:19:28.928Z,9.25
2023-01-05T13:24:35.971Z,9.61
2023-01-05T13:29:42.171Z,9.57
2023-01-05T13:34:43.689Z,9.72
2023-01-05T13:40:03.783Z,9.65
2023-01-05T13:45:14.484Z,9.67
2023-01-05T13:50:23.435Z,9.56
2023-01-05T13:55:26.840Z,9.46
2023-01-05T14:00:37.741Z,9.29
2023-01-05T14:05:50.478Z,8.92
2023-01-05T14:11:09.126Z,8.60
2023-01-05T14:16:43.763Z,8.64
2023-01-05T14:21:53.766Z,8.74
2023-01-05T14:27:02.295Z,8.85
2023-01-05T14:32:07.711Z,8.88
2023-01-05T14:37:40.097Z,8.89
2023-01-05T14:42:47.760Z,8.88
2023-01-05T14:47:53.042Z,8.84
2023-01-05T14:53:02.530Z,8.75
2023-01-05T14:58:25.677Z,8.66
2023-01-05T15:03:30.616Z,8.41
2023-01-05T15:08:55.431Z,8.05
2023-01-05T15:14:25.374Z,7.88
2023-01-05T15:19:36.042Z,7.63
2023-01-05T15:25:07.687Z,7.38
2023-01-05T15:30:32.565Z,7.24
2023-01-05T15:35:43.578Z,7.14
2023-01-05T15:40:45.354Z,7.19
2023-01-05T15:45:53.353Z,7.27
2023-01-05T15:50:58.343Z,7.35
2023-01-05T15:56:00.917Z,7.47
2023-01-05T16:01:10.817Z,7.53
2023-01-05T16:06:24.249Z,7.63
2023-01-05T16:11:36.666Z,7.75
2023-01-05T16:16:53.933Z,7.70
2023-01-05T16:22:09.141Z,7.72
2023-01-05T16:27:13.159Z,7.71
2023-01-05T16:32:34.531Z,7.74
2023-01-05T16:37:36.154Z,7.80
2023-01-05T16:42:46.818Z,7.84
2023-01-05T16:47:48.999Z,7.82
2023-01-05T16:53:06.480Z,7.84
2023-01-05T16:58:38.235Z,7.72
2023-01-05T17:03:40.570Z,7.68
2023-01-05T17:08:42.213Z,7.71
2023-01-05T17:13:45.691Z,7.64
2023-01-05T17:18:48.008Z,7.63
2023-01-05T17:23:52.390Z,7.59
2023-01-05T17:28:57.423Z,7.53
2023-01-05T17:33:59.092Z,7.53
2023-01-05T17:39:00.812Z,7.57
2023-01-05T17:44:02.640Z,7.56
2023-01-05T17:49:04.338Z,7.63
2023-01-05T17:54:06.008Z,7.66
2023-01-05T17:59:07.661Z,7.65
2023-01-05T18:04:09.248Z,7.65
2023-01-05T18:09:10.810Z,7.68
2023-01-05T18:14:12.387Z,7.68
2023-01-05T18:24:21.747Z,7.16
2023-01-05T18:29:23.402Z,7.02
2023-01-05T18:34:25.009Z,6.92
2023-01-05T18:39:26.648Z,6.96
2023-01-05T18:44:28.352Z,6.98
2023-01-05T18:49:29.969Z,7.01
2023-01-05T18:54:31.806Z,7.01
2023-01-05T18:59:33.383Z,7.00
2023-01-05T19:04:34.990Z,7.04
2023-01-05T19:09:36.750Z,7.07
2023-01-05T19:14:38.408Z,7.04
2023-01-05T19:19:41.041Z,6.98
2023-01-05T19:24:42.617Z,6.91
2023-01-05T19:29:44.845Z,6.88
2023-01-05T19:34:46.475Z,6.89
2023-01-05T19:39:48.072Z,6.83
2023-01-05T19:44:50.381Z,6.83
2023-01-05T19:49:53.205Z,6.76
2023-01-05T19:54:55.104Z,6.68
2023-01-05T19:59:56.775Z,6.77
2023-01-05T20:04:58.360Z,6.89
2023-01-05T20:09:59.968Z,6.87
2023-01-05T20:15:01.580Z,6.82
2023-01-05T20:20:03.199Z,6.84
2023-01-05T20:25:06.008Z,6.81
2023-01-05T20:30:08.101Z,6.82
2023-01-05T20:35:11.738Z,6.78
2023-01-05T20:40:13.408Z,6.77
2023-01-05T20:45:16.081Z,6.79
2023-01-05T20:50:17.916Z,6.77
2023-01-05T20:55:19.550Z,6.72
2023-01-05T21:00:21.232Z,6.69
2023-01-05T21:05:22.840Z,6.68
2023-01-05T21:10:24.415Z,6.62
2023-01-05T21:15:27.556Z,6.57
2023-01-05T21:20:29.183Z,6.65
2023-01-05T21:25:30.811Z,6.53
2023-01-05T21:30:52.419Z,6.61
2023-01-05T21:35:55.517Z,6.58
2023-01-05T21:41:05.454Z,6.42
2023-01-05T21:46:09.478Z,6.30
2023-01-05T21:51:29.770Z,6.25
2023-01-05T21:56:38.399Z,6.28
2023-01-05T22:01:40.089Z,6.40
2023-01-05T22:06:41.696Z,6.40
2023-01-05T22:11:43.435Z,6.41
2023-01-05T22:16:45.036Z,6.42
2023-01-05T22:21:46.669Z,6.41
2023-01-05T22:26:48.262Z,6.44
2023-01-05T22:31:50.735Z,6.37
2023-01-05T22:36:53.382Z,6.31
2023-01-05T22:41:55.004Z,6.26
2023-01-05T22:46:57.149Z,6.17
2023-01-05T22:51:58.740Z,6.04
2023-01-05T22:57:00.416Z,5.92
2023-01-05T23:02:02.055Z,5.75
2023-01-05T23:07:03.712Z,5.41
2023-01-05T23:12:05.371Z,5.39
2023-01-05T23:17:07.720Z,5.23
2023-01-05T23:22:11.487Z,4.85
2023-01-05T23:27:13.322Z,4.57
2023-01-05T23:32:14.930Z,4.26
2023-01-05T23:37:16.513Z,4.22
2023-01-05T23:42:36.706Z,4.40
2023-01-05T23:47:38.269Z,4.57
2023-01-05T23:52:39.876Z,4.28
2023-01-05T23:57:41.473Z,4.38
